createdAt,value
2023-10-30T00:00:15.037Z,98930.63
2023-10-30T00:02:43.027Z,98927.31
2023-10-30T00:05:12.597Z,98922.91
2023-10-30T00:07:41.038Z,98926.06
2023-10-30T00:10:09.523Z,98926.91
2023-10-30T00:12:57.034Z,98929.44
2023-10-30T00:15:27.244Z,98920.75
2023-10-30T00:17:55.082Z,98930.50
2023-10-30T00:20:22.815Z,98946.63
2023-10-30T00:22:51.024Z,98941.84
2023-10-30T00:25:19.376Z,98944.84
2023-10-30T00:27:48.045Z,98973.19
2023-10-30T00:30:17.298Z,98973.47
2023-10-30T00:32:45.091Z,98959.00
2023-10-30T00:35:13.173Z,98979.56
2023-10-30T00:37:41.042Z,99002.53
2023-10-30T00:40:09.938Z,98984.63
2023-10-30T00:42:37.845Z,99003.31
2023-10-30T00:45:07.385Z,99003.34
2023-10-30T00:47:39.670Z,99010.22
2023-10-30T00:50:09.115Z,99009.53
2023-10-30T00:52:36.794Z,98999.81
2023-10-30T00:55:05.086Z,98993.47
2023-10-30T00:57:32.836Z,99004.00
2023-10-30T01:00:00.823Z,98999.28
2023-10-30T01:02:29.283Z,99003.97
2023-10-30T01:04:59.253Z,99002.19
2023-10-30T01:07:28.088Z,99010.31
2023-10-30T01:09:55.872Z,99007.06
2023-10-30T01:12:23.651Z,99017.53
2023-10-30T01:14:52.105Z,99014.47
2023-10-30T01:17:20.065Z,99014.63
2023-10-30T01:19:48.280Z,99027.16
2023-10-30T01:22:17.699Z,99030.47
2023-10-30T01:24:46.080Z,99028.97
2023-10-30T01:27:13.785Z,99022.94
2023-10-30T01:29:42.236Z,99021.16
2023-10-30T01:32:09.941Z,99019.94
2023-10-30T01:34:38.124Z,99021.97
2023-10-30T01:37:05.934Z,99034.13
2023-10-30T01:39:35.206Z,99019.47
2023-10-30T01:42:03.402Z,99033.19
2023-10-30T01:44:31.316Z,99054.34
2023-10-30T01:47:00.152Z,99034.25
2023-10-30T01:49:27.902Z,99038.03
2023-10-30T01:51:55.699Z,99027.69
2023-10-30T01:54:24.192Z,99042.69
2023-10-30T01:56:53.325Z,99030.31
2023-10-30T01:59:21.192Z,99023.22
2023-10-30T02:01:48.884Z,99035.19
2023-10-30T02:04:18.191Z,99025.16
2023-10-30T02:06:45.989Z,99019.16
2023-10-30T02:09:14.303Z,99038.25
2023-10-30T02:11:42.066Z,99026.50
2023-10-30T02:14:11.171Z,99030.03
2023-10-30T02:16:39.247Z,99036.78
2023-10-30T02:19:10.191Z,99032.88
2023-10-30T02:21:38.061Z,99025.34
2023-10-30T02:24:08.240Z,99021.97
2023-10-30T02:26:37.332Z,99043.00
2023-10-30T02:29:07.183Z,99030.41
2023-10-30T02:31:35.104Z,99018.03
2023-10-30T02:34:03.250Z,99029.94
2023-10-30T02:36:31.321Z,99045.81
2023-10-30T02:38:59.201Z,99041.97
2023-10-30T02:41:30.268Z,99055.91
2023-10-30T02:43:59.475Z,99045.47
2023-10-30T02:46:28.552Z,99052.78
2023-10-30T02:48:56.620Z,99032.19
2023-10-30T02:51:25.266Z,99044.09
2023-10-30T02:53:53.172Z,99040.44
2023-10-30T02:56:20.974Z,99050.84
2023-10-30T02:58:48.845Z,99037.69
2023-10-30T03:01:18.230Z,99036.22
2023-10-30T03:03:46.163Z,99034.34
2023-10-30T03:06:14.278Z,99049.81
2023-10-30T03:08:56.970Z,99048.44
2023-10-30T03:11:25.394Z,99055.09
2023-10-30T03:13:53.048Z,99053.03
2023-10-30T03:16:22.326Z,99050.63
2023-10-30T03:18:50.073Z,99046.00
2023-10-30T03:21:18.330Z,99049.53
2023-10-30T03:23:46.091Z,99047.94
2023-10-30T03:26:14.268Z,99036.84
2023-10-30T03:28:42.232Z,99044.00
2023-10-30T03:31:11.292Z,99038.78
2023-10-30T03:33:40.468Z,99040.16
2023-10-30T03:36:08.555Z,99047.91
2023-10-30T03:38:37.280Z,99038.00
2023-10-30T03:41:05.404Z,99031.16
2023-10-30T03:43:34.290Z,99026.53
2023-10-30T03:46:02.087Z,99034.41
2023-10-30T03:48:30.626Z,99019.84
2023-10-30T03:51:00.680Z,99024.53
2023-10-30T03:53:29.292Z,99034.81
2023-10-30T03:55:57.826Z,99026.47
2023-10-30T03:58:27.309Z,99050.69
2023-10-30T04:00:54.963Z,99042.94
2023-10-30T04:03:23.387Z,99042.69
2023-10-30T04:05:51.133Z,99042.38
2023-10-30T04:08:20.566Z,99041.94
2023-10-30T04:10:48.807Z,99043.16
2023-10-30T04:13:17.590Z,99055.44
2023-10-30T04:15:45.326Z,99050.09
2023-10-30T04:18:13.435Z,99048.44
2023-10-30T04:20:41.169Z,99057.59
2023-10-30T04:23:09.342Z,99053.88
2023-10-30T04:25:38.578Z,99072.25
2023-10-30T04:28:06.493Z,99051.94
2023-10-30T04:31:00.631Z,99071.13
2023-10-30T04:33:28.713Z,99073.28
2023-10-30T04:35:56.449Z,99078.63
2023-10-30T04:38:26.358Z,99064.19
2023-10-30T04:40:55.449Z,99060.56
2023-10-30T04:43:23.123Z,99050.59
2023-10-30T04:45:51.393Z,99061.47
2023-10-30T04:48:19.453Z,99059.63
2023-10-30T04:50:47.372Z,99054.63
2023-10-30T04:53:15.042Z,99092.78
2023-10-30T04:55:42.780Z,99068.59
2023-10-30T04:58:12.406Z,99066.09
2023-10-30T05:00:40.415Z,99070.00
2023-10-30T05:03:09.401Z,99064.81
2023-10-30T05:05:37.472Z,99073.78
2023-10-30T05:08:06.042Z,99067.13
2023-10-30T05:10:33.869Z,99061.91
2023-10-30T05:13:02.387Z,99063.31
2023-10-30T05:15:31.524Z,99055.75
2023-10-30T05:17:59.433Z,99058.69
2023-10-30T05:20:27.341Z,99076.34
2023-10-30T05:22:55.422Z,99074.13
2023-10-30T05:25:35.796Z,99086.28
2023-10-30T05:28:10.638Z,99061.16
2023-10-30T05:30:42.403Z,99059.22
2023-10-30T05:33:10.486Z,99078.03
2023-10-30T05:35:38.240Z,99070.69
2023-10-30T05:38:07.420Z,99086.38
2023-10-30T05:40:35.433Z,99062.41
2023-10-30T05:43:03.428Z,99061.09
2023-10-30T05:45:31.187Z,99070.97
2023-10-30T05:48:00.335Z,99058.31
2023-10-30T05:50:28.433Z,99054.31
2023-10-30T05:52:56.395Z,99064.72
2023-10-30T05:55:24.453Z,99050.88
2023-10-30T05:57:52.992Z,99072.25
2023-10-30T06:00:21.482Z,99070.69
2023-10-30T06:02:49.805Z,99069.34
2023-10-30T06:05:19.783Z,99071.31
2023-10-30T06:07:48.473Z,99048.13
2023-10-30T06:10:20.745Z,99069.66
2023-10-30T06:12:48.787Z,99077.16
2023-10-30T06:15:17.499Z,99074.84
2023-10-30T06:17:45.489Z,99073.44
2023-10-30T06:20:14.512Z,99082.34
2023-10-30T06:22:43.669Z,99076.88
2023-10-30T06:25:15.741Z,99095.03
2023-10-30T06:27:43.694Z,99093.09
2023-10-30T06:30:14.553Z,99100.72
2023-10-30T06:32:42.473Z,99091.50
2023-10-30T06:35:11.535Z,99085.69
2023-10-30T06:37:39.304Z,99080.19
2023-10-30T06:40:09.526Z,99081.78
2023-10-30T06:42:37.572Z,99093.81
2023-10-30T06:45:06.543Z,99094.56
2023-10-30T06:47:35.039Z,99100.97
2023-10-30T06:50:03.522Z,99107.09
2023-10-30T06:52:31.491Z,99095.22
2023-10-30T06:54:59.477Z,99100.50
2023-10-30T06:57:29.645Z,99117.31
2023-10-30T06:59:58.329Z,99091.91
2023-10-30T07:02:26.580Z,99093.75
2023-10-30T07:04:54.392Z,99090.09
2023-10-30T07:07:22.540Z,99106.09
2023-10-30T07:09:51.670Z,99112.09
2023-10-30T07:12:19.424Z,99101.03
2023-10-30T07:15:12.561Z,99108.63
2023-10-30T07:17:41.339Z,99102.22
2023-10-30T07:20:10.559Z,99106.66
2023-10-30T07:22:38.401Z,99085.19
2023-10-30T07:25:07.519Z,99089.72
2023-10-30T07:27:35.992Z,99121.03
2023-10-30T07:30:05.855Z,99115.22
2023-10-30T07:32:33.833Z,99127.63
2023-10-30T07:37:47.756Z,99134.19
2023-10-30T07:40:15.553Z,99126.53
2023-10-30T07:42:43.423Z,99137.63
2023-10-30T07:45:14.615Z,99128.16
2023-10-30T07:47:44.549Z,99127.72
2023-10-30T07:50:20.606Z,99136.53
2023-10-30T07:52:48.435Z,99139.91
2023-10-30T07:55:16.573Z,99150.88
2023-10-30T07:57:44.367Z,99134.34
2023-10-30T08:00:15.213Z,99142.84
2023-10-30T08:02:43.911Z,99140.88
2023-10-30T08:08:05.624Z,99156.19
2023-10-30T08:10:33.456Z,99149.81
2023-10-30T08:13:01.355Z,99144.91
2023-10-30T08:15:30.690Z,99159.19
2023-10-30T08:17:58.489Z,99141.91
2023-10-30T08:23:10.638Z,99150.97
2023-10-30T08:25:40.240Z,99158.34
2023-10-30T08:28:10.053Z,99149.50
2023-10-30T08:33:10.205Z,99146.66
2023-10-30T08:35:39.679Z,99147.94
2023-10-30T08:38:08.192Z,99159.22
2023-10-30T08:40:35.868Z,99161.09
2023-10-30T08:43:03.668Z,99158.03
2023-10-30T08:45:31.407Z,99158.69
2023-10-30T08:48:15.711Z,99153.31
2023-10-30T08:50:45.698Z,99144.66
2023-10-30T08:53:13.734Z,99150.91
2023-10-30T08:55:42.636Z,99166.19
2023-10-30T08:58:10.704Z,99171.91
2023-10-30T09:00:38.682Z,99165.50
2023-10-30T09:03:08.984Z,99174.28
2023-10-30T09:05:36.866Z,99181.88
2023-10-30T09:08:05.717Z,99185.66
2023-10-30T09:10:35.439Z,99179.13
2023-10-30T09:13:03.706Z,99158.00
2023-10-30T09:15:31.490Z,99169.16
2023-10-30T09:17:59.755Z,99182.16
2023-10-30T09:20:28.854Z,99178.25
2023-10-30T09:22:56.794Z,99170.06
2023-10-30T09:25:24.774Z,99172.38
2023-10-30T09:27:53.854Z,99158.03
2023-10-30T09:30:22.802Z,99166.41
2023-10-30T09:32:51.289Z,99182.97
2023-10-30T09:35:19.898Z,99151.28
2023-10-30T09:37:48.980Z,99168.03
2023-10-30T09:40:17.736Z,99166.88
2023-10-30T09:42:53.809Z,99180.88
2023-10-30T09:45:23.890Z,99186.63
2023-10-30T09:47:54.538Z,99193.22
2023-10-30T09:50:23.753Z,99188.41
2023-10-30T09:52:54.225Z,99163.59
2023-10-30T09:55:24.005Z,99198.53
2023-10-30T09:57:54.253Z,99189.03
2023-10-30T10:00:22.585Z,99195.31
2023-10-30T10:02:50.985Z,99194.31
2023-10-30T10:05:19.758Z,99176.50
2023-10-30T10:07:47.806Z,99173.16
2023-10-30T10:10:19.735Z,99188.50
2023-10-30T10:12:52.047Z,99155.31
2023-10-30T10:15:21.748Z,99173.56
2023-10-30T10:17:51.811Z,99170.50
2023-10-30T10:20:23.275Z,99170.56
2023-10-30T10:22:51.806Z,99183.44
2023-10-30T10:25:21.617Z,99183.56
2023-10-30T10:27:53.136Z,99178.13
2023-10-30T10:30:25.017Z,99178.78
2023-10-30T10:32:59.900Z,99168.91
2023-10-30T10:35:27.926Z,99172.22
2023-10-30T10:38:10.945Z,99163.97
2023-10-30T10:40:40.844Z,99155.72
2023-10-30T10:43:10.112Z,99177.25
2023-10-30T10:45:38.346Z,99170.44
2023-10-30T10:48:07.840Z,99132.78
2023-10-30T10:50:36.445Z,99144.44
2023-10-30T10:53:06.021Z,99168.34
2023-10-30T10:55:37.250Z,99138.75
2023-10-30T10:58:12.110Z,99119.31
2023-10-30T11:00:43.921Z,99125.22
2023-10-30T11:03:12.171Z,99105.72
2023-10-30T11:05:40.904Z,99122.72
2023-10-30T11:08:18.400Z,99123.88
2023-10-30T11:10:51.015Z,99113.19
2023-10-30T11:13:27.772Z,99101.97
2023-10-30T11:15:59.973Z,99103.59
2023-10-30T11:18:29.223Z,99124.34
2023-10-30T11:21:11.006Z,99143.47
2023-10-30T11:23:49.883Z,99097.06
2023-10-30T11:26:39.131Z,99130.59
2023-10-30T11:29:11.122Z,99097.25
2023-10-30T11:31:55.852Z,99089.56
2023-10-30T11:34:32.979Z,99096.25
2023-10-30T11:37:03.101Z,99067.56
2023-10-30T11:39:34.936Z,99072.94
2023-10-30T11:42:03.200Z,99104.44
2023-10-30T11:44:32.697Z,99079.97
2023-10-30T11:47:00.939Z,99088.00
2023-10-30T11:49:32.075Z,99083.59
2023-10-30T11:52:00.158Z,99061.75
2023-10-30T11:54:35.198Z,99099.09
2023-10-30T11:57:03.332Z,99061.63
2023-10-30T11:59:32.924Z,99046.53
2023-10-30T12:02:02.378Z,99066.22
2023-10-30T12:04:33.586Z,99077.09
2023-10-30T12:07:01.481Z,99054.19
2023-10-30T12:09:29.967Z,99032.78
2023-10-30T12:11:57.860Z,99033.22
2023-10-30T12:14:25.647Z,99011.75
2023-10-30T12:16:54.989Z,99036.50
2023-10-30T12:19:23.687Z,99024.31
2023-10-30T12:21:52.015Z,99062.03
2023-10-30T12:24:20.245Z,99038.63
2023-10-30T12:26:49.703Z,99027.53
2023-10-30T12:29:23.690Z,99051.25
2023-10-30T12:32:05.724Z,99037.50
2023-10-30T12:34:36.943Z,99012.03
2023-10-30T12:37:18.982Z,99009.00
2023-10-30T12:40:01.312Z,99005.03
2023-10-30T12:42:31.302Z,98980.16
2023-10-30T12:44:59.033Z,99014.34
2023-10-30T12:47:29.038Z,99026.59
2023-10-30T12:49:56.694Z,99036.16
2023-10-30T12:52:24.916Z,99002.47
2023-10-30T12:54:53.050Z,98975.84
2023-10-30T12:57:20.984Z,98991.69
2023-10-30T12:59:49.019Z,98990.44
2023-10-30T13:02:16.781Z,98953.03
2023-10-30T13:04:47.323Z,98958.97
2023-10-30T13:07:16.687Z,98945.47
2023-10-30T13:09:45.074Z,98944.91
2023-10-30T13:12:13.064Z,98928.91
2023-10-30T13:14:41.695Z,98938.34
2023-10-30T13:17:09.373Z,98933.59
2023-10-30T13:19:38.037Z,98973.16
2023-10-30T13:22:07.661Z,98953.72
2023-10-30T13:24:35.680Z,98937.34
2023-10-30T13:27:04.040Z,98945.16
2023-10-30T13:29:33.040Z,98949.16
2023-10-30T13:32:01.070Z,98946.19
2023-10-30T13:34:28.983Z,98946.53
2023-10-30T13:36:57.093Z,98930.00
2023-10-30T13:39:26.313Z,98899.94
2023-10-30T13:41:53.999Z,98930.75
2023-10-30T13:44:22.358Z,98901.72
2023-10-30T13:47:07.311Z,98877.66
2023-10-30T13:53:04.194Z,98866.41
2023-10-30T13:55:33.400Z,98852.84
2023-10-30T13:58:01.406Z,98883.28
2023-10-30T14:00:32.229Z,98889.16
2023-10-30T14:03:00.177Z,98876.47
2023-10-30T14:05:30.097Z,98886.84
2023-10-30T14:10:35.350Z,98846.94
2023-10-30T14:13:03.486Z,98867.78
2023-10-30T14:15:32.304Z,98885.63
2023-10-30T14:18:00.026Z,98898.16
2023-10-30T14:20:28.137Z,98890.94
2023-10-30T14:25:32.130Z,98858.69
2023-10-30T14:28:01.229Z,98885.59
2023-10-30T14:30:30.172Z,98876.53
2023-10-30T14:32:57.881Z,98869.38
2023-10-30T14:35:25.604Z,98860.88
2023-10-30T14:37:54.171Z,98850.22
2023-10-30T14:40:22.012Z,98853.31
2023-10-30T14:42:50.196Z,98860.97
2023-10-30T14:45:20.786Z,98881.66
2023-10-30T14:47:48.695Z,98849.59
2023-10-30T14:50:17.477Z,98867.44
2023-10-30T14:52:45.145Z,98871.81
2023-10-30T14:55:13.356Z,98859.34
2023-10-30T14:57:41.133Z,98854.50
2023-10-30T15:00:10.138Z,98828.97
2023-10-30T15:02:40.231Z,98822.25
2023-10-30T15:05:11.734Z,98814.22
2023-10-30T15:07:41.444Z,98842.06
2023-10-30T15:10:10.210Z,98839.88
2023-10-30T15:12:38.323Z,98836.00
2023-10-30T15:15:28.501Z,98819.25
2023-10-30T15:17:57.989Z,98807.47
2023-10-30T15:20:26.230Z,98805.69
2023-10-30T15:22:54.023Z,98786.47
2023-10-30T15:25:23.505Z,98777.16
2023-10-30T15:27:51.411Z,98806.69
2023-10-30T15:30:20.213Z,98803.47
2023-10-30T15:32:47.922Z,98775.44
2023-10-30T15:35:17.995Z,98784.16
2023-10-30T15:37:46.203Z,98775.53
2023-10-30T15:40:14.662Z,98766.53
2023-10-30T15:42:42.686Z,98765.38
2023-10-30T15:45:11.255Z,98787.84
2023-10-30T15:47:39.642Z,98788.91
2023-10-30T15:50:10.228Z,98764.50
2023-10-30T15:57:41.291Z,98776.88
2023-10-30T16:00:09.837Z,98756.09
2023-10-30T16:02:38.404Z,98774.00
2023-10-30T16:05:06.612Z,98772.69
2023-10-30T16:07:37.846Z,98759.38
2023-10-30T16:12:40.594Z,98758.44
2023-10-30T16:15:10.828Z,98727.06
2023-10-30T16:17:39.406Z,98726.41
2023-10-30T16:22:43.617Z,98727.78
2023-10-30T16:25:15.535Z,98710.72
2023-10-30T16:27:43.573Z,98711.72
2023-10-30T16:30:12.102Z,98728.00
2023-10-30T16:32:40.470Z,98722.59
2023-10-30T16:35:08.942Z,98723.69
2023-10-30T16:37:36.626Z,98703.03
2023-10-30T16:40:05.316Z,98717.63
2023-10-30T16:42:35.931Z,98706.09
2023-10-30T16:45:25.358Z,98713.50
2023-10-30T16:47:53.031Z,98726.34
2023-10-30T16:50:21.356Z,98708.31
2023-10-30T16:52:49.049Z,98706.22
2023-10-30T16:55:17.370Z,98718.59
2023-10-30T16:57:46.557Z,98710.13
2023-10-30T17:00:15.332Z,98714.69
2023-10-30T17:02:43.456Z,98722.81
2023-10-30T17:05:11.468Z,98709.34
2023-10-30T17:07:39.164Z,98717.47
2023-10-30T17:10:10.378Z,98694.09
2023-10-30T17:12:38.076Z,98700.09
2023-10-30T17:15:09.536Z,98709.03
2023-10-30T17:17:37.310Z,98703.44
2023-10-30T17:20:06.381Z,98688.31
2023-10-30T17:22:34.928Z,98679.28
2023-10-30T17:25:03.399Z,98698.72
2023-10-30T17:27:31.192Z,98694.44
2023-10-30T17:29:58.834Z,98729.50
2023-10-30T17:32:28.402Z,98717.38
2023-10-30T17:34:56.467Z,98720.75
2023-10-30T17:37:26.412Z,98733.84
2023-10-30T17:39:54.239Z,98713.13
2023-10-30T17:42:23.441Z,98717.47
2023-10-30T17:44:51.310Z,98703.59
2023-10-30T17:47:19.303Z,98705.69
2023-10-30T17:49:49.708Z,98700.41
2023-10-30T17:52:17.856Z,98706.09
2023-10-30T17:54:46.396Z,98704.72
2023-10-30T17:57:14.565Z,98720.19
2023-10-30T17:59:44.738Z,98715.69
2023-10-30T18:02:13.480Z,98713.13
2023-10-30T18:04:41.182Z,98706.47
2023-10-30T18:07:11.424Z,98710.03
2023-10-30T18:09:39.225Z,98703.22
2023-10-30T18:12:08.050Z,98710.59
2023-10-30T18:14:38.235Z,98703.88
2023-10-30T18:17:06.556Z,98700.38
2023-10-30T18:19:34.232Z,98687.16
2023-10-30T18:22:02.456Z,98694.66
2023-10-30T18:24:32.209Z,98681.38
2023-10-30T18:27:00.474Z,98674.78
2023-10-30T18:29:29.308Z,98687.56
2023-10-30T18:31:57.526Z,98672.84
2023-10-30T18:34:25.227Z,98683.13
2023-10-30T18:36:53.486Z,98672.75
2023-10-30T18:39:21.310Z,98661.75
2023-10-30T18:41:50.577Z,98678.91
2023-10-30T18:44:19.483Z,98689.19
2023-10-30T18:46:47.412Z,98690.56
2023-10-30T18:49:37.524Z,98669.03
2023-10-30T18:52:05.790Z,98654.63
2023-10-30T18:54:34.511Z,98666.16
2023-10-30T18:57:03.651Z,98660.13
2023-10-30T19:02:13.621Z,98650.16
2023-10-30T19:04:41.573Z,98635.72
2023-10-30T19:07:10.512Z,98638.94
2023-10-30T19:09:38.298Z,98633.47
2023-10-30T19:12:08.520Z,98627.00
2023-10-30T19:14:36.874Z,98626.34
2023-10-30T19:17:05.572Z,98643.06
2023-10-30T19:19:36.082Z,98648.69
2023-10-30T19:22:04.603Z,98625.88
2023-10-30T19:24:32.536Z,98614.13
2023-10-30T19:27:00.461Z,98621.53
2023-10-30T19:29:29.678Z,98634.78
2023-10-30T19:31:57.720Z,98634.56
2023-10-30T19:34:26.800Z,98624.75
2023-10-30T19:36:54.868Z,98603.53
2023-10-30T19:39:22.694Z,98626.44
2023-10-30T19:41:50.915Z,98600.72
2023-10-30T19:44:18.874Z,98605.63
2023-10-30T19:46:48.611Z,98613.66
2023-10-30T19:49:16.693Z,98600.25
2023-10-30T19:52:06.815Z,98598.91
2023-10-30T19:54:35.569Z,98633.06
2023-10-30T19:57:03.404Z,98603.16
2023-10-30T19:59:31.179Z,98614.84
2023-10-30T20:02:01.666Z,98609.97
2023-10-30T20:04:29.427Z,98623.03
2023-10-30T20:06:57.606Z,98603.50
2023-10-30T20:09:37.531Z,98587.56
2023-10-30T20:12:10.744Z,98620.63
2023-10-30T20:14:38.682Z,98593.88
2023-10-30T20:17:10.634Z,98586.41
2023-10-30T20:19:38.906Z,98604.09
2023-10-30T20:22:07.691Z,98592.00
2023-10-30T20:24:36.187Z,98585.69
2023-10-30T20:27:04.654Z,98580.31
2023-10-30T20:29:51.468Z,98592.22
2023-10-30T20:32:20.689Z,98574.09
2023-10-30T20:34:48.690Z,98593.09
2023-10-30T20:37:16.531Z,98611.91
2023-10-30T20:39:44.671Z,98588.69
2023-10-30T20:42:13.334Z,98569.44
2023-10-30T20:44:41.655Z,98583.84
2023-10-30T20:47:09.844Z,98578.16
2023-10-30T20:49:41.692Z,98561.75
2023-10-30T20:52:09.751Z,98581.84
2023-10-30T20:54:37.681Z,98555.28
2023-10-30T20:57:06.111Z,98559.84
2023-10-30T20:59:33.771Z,98559.94
2023-10-30T21:02:02.734Z,98565.66
2023-10-30T21:04:30.921Z,98574.75
2023-10-30T21:07:00.081Z,98574.22
2023-10-30T21:09:28.664Z,98570.34
2023-10-30T21:11:56.375Z,98554.47
2023-10-30T21:14:24.667Z,98532.78
2023-10-30T21:16:53.373Z,98561.75
2023-10-30T21:19:21.707Z,98536.53
2023-10-30T21:21:49.380Z,98557.72
2023-10-30T21:24:28.726Z,98538.81
2023-10-30T21:26:56.460Z,98556.59
2023-10-30T21:29:24.686Z,98562.06
2023-10-30T21:31:52.414Z,98542.84
2023-10-30T21:34:22.985Z,98548.88
2023-10-30T21:36:52.594Z,98525.88
2023-10-30T21:39:20.247Z,98523.50
2023-10-30T21:41:49.705Z,98513.88
2023-10-30T21:44:17.389Z,98507.72
2023-10-30T21:46:45.902Z,98504.47
2023-10-30T21:49:15.034Z,98504.84
2023-10-30T21:51:43.760Z,98520.78
2023-10-30T21:54:11.463Z,98519.22
2023-10-30T21:56:39.315Z,98494.00
2023-10-30T21:59:09.098Z,98495.81
2023-10-30T22:01:36.947Z,98480.66
2023-10-30T22:04:05.224Z,98505.09
2023-10-30T22:06:33.764Z,98480.50
2023-10-30T22:09:01.556Z,98458.63
2023-10-30T22:11:30.762Z,98492.53
2023-10-30T22:13:59.034Z,98476.03
2023-10-30T22:16:28.888Z,98474.28
2023-10-30T22:18:56.950Z,98469.56
2023-10-30T22:21:24.763Z,98467.31
2023-10-30T22:23:52.595Z,98465.25
2023-10-30T22:26:20.773Z,98471.31
2023-10-30T22:28:48.564Z,98474.34
2023-10-30T22:31:16.866Z,98466.25
2023-10-30T22:33:46.017Z,98485.75
2023-10-30T22:36:16.381Z,98472.50
2023-10-30T22:38:44.809Z,98468.81
2023-10-30T22:41:12.539Z,98457.25
2023-10-30T22:43:40.959Z,98433.34
2023-10-30T22:46:08.800Z,98446.28
2023-10-30T22:48:36.490Z,98443.19
2023-10-30T22:51:06.798Z,98429.78
2023-10-30T22:53:34.491Z,98446.13
2023-10-30T22:56:03.253Z,98436.53
2023-10-30T22:58:31.982Z,98424.69
2023-10-30T23:00:59.889Z,98409.41
2023-10-30T23:03:28.964Z,98407.63
2023-10-30T23:05:56.738Z,98400.13
2023-10-30T23:08:27.075Z,98423.97
2023-10-30T23:10:54.986Z,98436.06
2023-10-30T23:13:22.841Z,98436.44
2023-10-30T23:15:50.570Z,98410.72
2023-10-30T23:18:18.874Z,98406.53
2023-10-30T23:20:46.612Z,98412.25
2023-10-30T23:23:14.318Z,98403.31
2023-10-30T23:25:44.009Z,98398.59
2023-10-30T23:28:11.755Z,98405.16
2023-10-30T23:30:39.861Z,98414.06
2023-10-30T23:33:07.607Z,98415.81
2023-10-30T23:35:35.337Z,98401.50
2023-10-30T23:38:08.376Z,98404.50
2023-10-30T23:40:41.138Z,98415.19
2023-10-30T23:43:10.359Z,98395.47
2023-10-30T23:45:39.019Z,98411.81
2023-10-30T23:48:07.345Z,98413.06
2023-10-30T23:50:35.045Z,98420.19
2023-10-30T23:53:04.052Z,98403.56
2023-10-30T23:55:31.845Z,98400.50
2023-10-30T23:57:59.881Z,98405.53
